sensor_id;sensor_type;location;lat;lon;timestamp;temperature;humidity
12771;DHT22;6449;47.666;9.160;2023-09-12T00:00:07;19.10;99.90
12771;DHT22;6449;47.666;9.160;2023-09-12T00:05:01;19.20;99.90
12771;DHT22;6449;47.666;9.160;2023-09-12T00:09:56;19.10;99.90
12771;DHT22;6449;47.666;9.160;2023-09-12T00:14:49;19.00;99.90
12771;DHT22;6449;47.666;9.160;2023-09-12T00:19:44;19.00;99.90
12771;DHT22;6449;47.666;9.160;2023-09-12T00:24:37;19.00;99.90
12771;DHT22;6449;47.666;9.160;2023-09-12T00:29:31;18.90;99.90
12771;DHT22;6449;47.666;9.160;2023-09-12T00:34:24;18.80;99.90
12771;DHT22;6449;47.666;9.160;2023-09-12T00:39:19;18.80;99.90
12771;DHT22;6449;47.666;9.160;2023-09-12T00:44:12;18.80;99.90
12771;DHT22;6449;47.666;9.160;2023-09-12T00:49:06;18.90;99.90
12771;DHT22;6449;47.666;9.160;2023-09-12T00:54:01;18.80;99.90
12771;DHT22;6449;47.666;9.160;2023-09-12T00:58:56;18.80;99.90
12771;DHT22;6449;47.666;9.160;2023-09-12T01:03:50;18.80;99.90
12771;DHT22;6449;47.666;9.160;2023-09-12T01:08:44;18.80;99.90
12771;DHT22;6449;47.666;9.160;2023-09-12T01:13:38;18.80;99.90
12771;DHT22;6449;47.666;9.160;2023-09-12T01:18:33;18.70;99.90
12771;DHT22;6449;47.666;9.160;2023-09-12T01:23:36;18.70;99.90
12771;DHT22;6449;47.666;9.160;2023-09-12T01:28:40;18.80;99.90
12771;DHT22;6449;47.666;9.160;2023-09-12T01:33:36;18.80;99.90
12771;DHT22;6449;47.666;9.160;2023-09-12T01:38:30;18.70;99.90
12771;DHT22;6449;47.666;9.160;2023-09-12T01:43:24;18.60;99.90
12771;DHT22;6449;47.666;9.160;2023-09-12T01:48:22;18.50;99.90
12771;DHT22;6449;47.666;9.160;2023-09-12T01:53:19;18.50;99.90
12771;DHT22;6449;47.666;9.160;2023-09-12T01:58:13;18.40;99.90
12771;DHT22;6449;47.666;9.160;2023-09-12T02:03:06;18.40;99.90
12771;DHT22;6449;47.666;9.160;2023-09-12T02:08:01;18.30;99.90
12771;DHT22;6449;47.666;9.160;2023-09-12T02:12:56;18.30;99.90
12771;DHT22;6449;47.666;9.160;2023-09-12T02:17:50;18.40;99.90
12771;DHT22;6449;47.666;9.160;2023-09-12T02:22:44;18.50;99.90
12771;DHT22;6449;47.666;9.160;2023-09-12T02:27:39;18.40;99.90
12771;DHT22;6449;47.666;9.160;2023-09-12T02:32:33;18.40;99.90
12771;DHT22;6449;47.666;9.160;2023-09-12T02:37:26;18.40;99.90
12771;DHT22;6449;47.666;9.160;2023-09-12T02:42:19;18.30;99.90
12771;DHT22;6449;47.666;9.160;2023-09-12T02:47:14;18.20;99.90
12771;DHT22;6449;47.666;9.160;2023-09-12T02:52:08;18.20;99.90
12771;DHT22;6449;47.666;9.160;2023-09-12T02:57:01;18.20;99.90
12771;DHT22;6449;47.666;9.160;2023-09-12T03:01:54;18.20;99.90
12771;DHT22;6449;47.666;9.160;2023-09-12T03:06:49;18.20;99.90
12771;DHT22;6449;47.666;9.160;2023-09-12T03:11:42;18.10;99.90
12771;DHT22;6449;47.666;9.160;2023-09-12T03:16:35;17.90;99.90
12771;DHT22;6449;47.666;9.160;2023-09-12T03:21:30;17.90;99.90
12771;DHT22;6449;47.666;9.160;2023-09-12T03:26:25;17.90;99.90
12771;DHT22;6449;47.666;9.160;2023-09-12T03:31:19;18.00;99.90
12771;DHT22;6449;47.666;9.160;2023-09-12T03:36:13;17.90;99.90
12771;DHT22;6449;47.666;9.160;2023-09-12T03:41:07;17.80;99.90
12771;DHT22;6449;47.666;9.160;2023-09-12T03:46:02;17.70;99.90
12771;DHT22;6449;47.666;9.160;2023-09-12T03:50:55;17.70;99.90
12771;DHT22;6449;47.666;9.160;2023-09-12T03:55:49;17.80;99.90
12771;DHT22;6449;47.666;9.160;2023-09-12T04:00:42;17.60;99.90
12771;DHT22;6449;47.666;9.160;2023-09-12T04:05:37;17.70;99.90
12771;DHT22;6449;47.666;9.160;2023-09-12T04:10:30;17.70;99.90
12771;DHT22;6449;47.666;9.160;2023-09-12T04:15:25;17.60;99.90
12771;DHT22;6449;47.666;9.160;2023-09-12T04:20:18;17.60;99.90
12771;DHT22;6449;47.666;9.160;2023-09-12T04:25:13;17.50;99.90
12771;DHT22;6449;47.666;9.160;2023-09-12T04:30:07;17.50;99.90
12771;DHT22;6449;47.666;9.160;2023-09-12T04:35:01;17.40;99.90
12771;DHT22;6449;47.666;9.160;2023-09-12T04:39:56;17.40;99.90
12771;DHT22;6449;47.666;9.160;2023-09-12T04:44:51;17.50;99.90
12771;DHT22;6449;47.666;9.160;2023-09-12T04:49:44;17.50;99.90
12771;DHT22;6449;47.666;9.160;2023-09-12T04:54:38;17.50;99.90
12771;DHT22;6449;47.666;9.160;2023-09-12T04:59:31;17.50;99.90
12771;DHT22;6449;47.666;9.160;2023-09-12T05:04:26;17.50;99.90
12771;DHT22;6449;47.666;9.160;2023-09-12T05:09:19;17.50;99.90
12771;DHT22;6449;47.666;9.160;2023-09-12T05:14:14;17.40;99.90
12771;DHT22;6449;47.666;9.160;2023-09-12T05:19:08;17.40;99.90
12771;DHT22;6449;47.666;9.160;2023-09-12T05:24:03;17.40;99.90
12771;DHT22;6449;47.666;9.160;2023-09-12T05:28:57;17.30;99.90
12771;DHT22;6449;47.666;9.160;2023-09-12T05:33:51;17.20;99.90
12771;DHT22;6449;47.666;9.160;2023-09-12T05:38:44;17.30;99.90
12771;DHT22;6449;47.666;9.160;2023-09-12T05:43:39;17.40;99.90
12771;DHT22;6449;47.666;9.160;2023-09-12T05:48:37;17.50;99.90
12771;DHT22;6449;47.666;9.160;2023-09-12T05:53:31;17.60;99.90
12771;DHT22;6449;47.666;9.160;2023-09-12T05:58:25;17.70;99.90
12771;DHT22;6449;47.666;9.160;2023-09-12T06:03:21;17.90;99.90
12771;DHT22;6449;47.666;9.160;2023-09-12T06:08:14;18.00;99.90
12771;DHT22;6449;47.666;9.160;2023-09-12T06:13:08;18.00;99.90
12771;DHT22;6449;47.666;9.160;2023-09-12T06:18:04;18.10;99.90
12771;DHT22;6449;47.666;9.160;2023-09-12T06:22:59;18.10;99.90
12771;DHT22;6449;47.666;9.160;2023-09-12T06:27:52;18.20;99.90
12771;DHT22;6449;47.666;9.160;2023-09-12T06:32:45;18.30;99.90
12771;DHT22;6449;47.666;9.160;2023-09-12T06:37:39;18.50;99.90
12771;DHT22;6449;47.666;9.160;2023-09-12T06:42:33;18.70;99.90
12771;DHT22;6449;47.666;9.160;2023-09-12T06:47:27;18.80;99.90
12771;DHT22;6449;47.666;9.160;2023-09-12T06:52:20;18.90;99.90
12771;DHT22;6449;47.666;9.160;2023-09-12T06:57:14;18.80;99.90
12771;DHT22;6449;47.666;9.160;2023-09-12T07:02:08;18.70;99.90
12771;DHT22;6449;47.666;9.160;2023-09-12T07:07:04;18.70;99.90
12771;DHT22;6449;47.666;9.160;2023-09-12T07:11:58;18.70;99.90
12771;DHT22;6449;47.666;9.160;2023-09-12T07:16:51;18.80;99.90
12771;DHT22;6449;47.666;9.160;2023-09-12T07:21:46;18.90;99.90
12771;DHT22;6449;47.666;9.160;2023-09-12T07:26:39;19.10;99.90
12771;DHT22;6449;47.666;9.160;2023-09-12T07:31:33;19.30;99.90
12771;DHT22;6449;47.666;9.160;2023-09-12T07:36:26;19.40;99.90
12771;DHT22;6449;47.666;9.160;2023-09-12T07:41:21;19.50;99.90
12771;DHT22;6449;47.666;9.160;2023-09-12T07:46:14;19.50;99.90
12771;DHT22;6449;47.666;9.160;2023-09-12T07:51:15;19.60;99.90
12771;DHT22;6449;47.666;9.160;2023-09-12T07:56:10;19.70;99.90
12771;DHT22;6449;47.666;9.160;2023-09-12T08:01:09;19.90;99.90
12771;DHT22;6449;47.666;9.160;2023-09-12T08:06:03;20.20;99.90
12771;DHT22;6449;47.666;9.160;2023-09-12T08:10:56;20.50;99.90
12771;DHT22;6449;47.666;9.160;2023-09-12T08:15:50;20.90;99.90
12771;DHT22;6449;47.666;9.160;2023-09-12T08:20:45;21.10;99.90
12771;DHT22;6449;47.666;9.160;2023-09-12T08:25:39;21.20;99.90
12771;DHT22;6449;47.666;9.160;2023-09-12T08:30:33;21.20;99.90
12771;DHT22;6449;47.666;9.160;2023-09-12T08:35:26;21.30;99.90
12771;DHT22;6449;47.666;9.160;2023-09-12T08:40:21;21.50;99.90
12771;DHT22;6449;47.666;9.160;2023-09-12T08:45:16;21.80;99.90
12771;DHT22;6449;47.666;9.160;2023-09-12T08:50:12;22.00;99.90
12771;DHT22;6449;47.666;9.160;2023-09-12T08:55:08;22.20;99.90
12771;DHT22;6449;47.666;9.160;2023-09-12T09:00:05;22.40;99.90
12771;DHT22;6449;47.666;9.160;2023-09-12T09:05:02;22.70;99.90
12771;DHT22;6449;47.666;9.160;2023-09-12T09:09:58;23.00;99.90
12771;DHT22;6449;47.666;9.160;2023-09-12T09:14:51;22.90;99.90
12771;DHT22;6449;47.666;9.160;2023-09-12T09:19:46;23.00;99.90
12771;DHT22;6449;47.666;9.160;2023-09-12T09:24:39;23.00;99.90
12771;DHT22;6449;47.666;9.160;2023-09-12T09:29:45;23.20;99.90
12771;DHT22;6449;47.666;9.160;2023-09-12T09:34:40;23.40;99.90
12771;DHT22;6449;47.666;9.160;2023-09-12T09:39:35;23.70;99.90
12771;DHT22;6449;47.666;9.160;2023-09-12T09:44:29;23.80;99.90
12771;DHT22;6449;47.666;9.160;2023-09-12T09:49:22;23.90;99.90
12771;DHT22;6449;47.666;9.160;2023-09-12T09:54:16;23.90;99.90
12771;DHT22;6449;47.666;9.160;2023-09-12T09:59:14;24.10;99.90
12771;DHT22;6449;47.666;9.160;2023-09-12T10:04:09;24.30;99.90
12771;DHT22;6449;47.666;9.160;2023-09-12T10:09:07;24.30;99.90
12771;DHT22;6449;47.666;9.160;2023-09-12T10:14:04;24.30;99.90
12771;DHT22;6449;47.666;9.160;2023-09-12T10:19:07;24.40;99.90
12771;DHT22;6449;47.666;9.160;2023-09-12T10:24:04;24.50;99.90
12771;DHT22;6449;47.666;9.160;2023-09-12T10:29:00;24.40;99.90
12771;DHT22;6449;47.666;9.160;2023-09-12T10:33:57;24.50;99.90
12771;DHT22;6449;47.666;9.160;2023-09-12T10:38:55;24.50;99.90
12771;DHT22;6449;47.666;9.160;2023-09-12T10:43:53;24.50;99.90
12771;DHT22;6449;47.666;9.160;2023-09-12T10:48:48;24.60;99.90
12771;DHT22;6449;47.666;9.160;2023-09-12T10:53:48;24.70;99.90
12771;DHT22;6449;47.666;9.160;2023-09-12T10:59:10;24.70;99.90
12771;DHT22;6449;47.666;9.160;2023-09-12T11:04:31;24.70;99.90
12771;DHT22;6449;47.666;9.160;2023-09-12T11:09:28;24.70;99.90
12771;DHT22;6449;47.666;9.160;2023-09-12T11:14:22;24.70;99.90
12771;DHT22;6449;47.666;9.160;2023-09-12T11:19:17;24.70;99.90
12771;DHT22;6449;47.666;9.160;2023-09-12T11:24:11;24.60;99.90
12771;DHT22;6449;47.666;9.160;2023-09-12T11:29:13;24.40;99.90
12771;DHT22;6449;47.666;9.160;2023-09-12T11:34:08;24.40;99.90
12771;DHT22;6449;47.666;9.160;2023-09-12T11:39:22;24.60;99.90
12771;DHT22;6449;47.666;9.160;2023-09-12T11:44:19;24.50;99.90
12771;DHT22;6449;47.666;9.160;2023-09-12T11:49:14;24.60;99.90
12771;DHT22;6449;47.666;9.160;2023-09-12T11:54:08;24.70;99.90
12771;DHT22;6449;47.666;9.160;2023-09-12T11:59:01;24.70;99.90
12771;DHT22;6449;47.666;9.160;2023-09-12T12:03:56;24.80;99.90
12771;DHT22;6449;47.666;9.160;2023-09-12T12:08:50;25.00;99.90
12771;DHT22;6449;47.666;9.160;2023-09-12T12:13:46;25.10;99.90
12771;DHT22;6449;47.666;9.160;2023-09-12T12:18:41;25.30;99.90
12771;DHT22;6449;47.666;9.160;2023-09-12T12:23:36;25.40;99.90
12771;DHT22;6449;47.666;9.160;2023-09-12T12:28:30;25.40;99.90
12771;DHT22;6449;47.666;9.160;2023-09-12T12:33:24;25.40;99.90
12771;DHT22;6449;47.666;9.160;2023-09-12T12:38:40;25.50;99.90
12771;DHT22;6449;47.666;9.160;2023-09-12T12:43:49;25.40;99.90
12771;DHT22;6449;47.666;9.160;2023-09-12T12:48:44;25.40;99.90
12771;DHT22;6449;47.666;9.160;2023-09-12T12:53:40;25.40;99.90
12771;DHT22;6449;47.666;9.160;2023-09-12T12:58:37;25.30;99.90
12771;DHT22;6449;47.666;9.160;2023-09-12T13:03:31;25.30;99.90
12771;DHT22;6449;47.666;9.160;2023-09-12T13:08:24;25.40;99.90
12771;DHT22;6449;47.666;9.160;2023-09-12T13:13:19;25.40;99.90
12771;DHT22;6449;47.666;9.160;2023-09-12T13:18:14;25.40;99.90
12771;DHT22;6449;47.666;9.160;2023-09-12T13:23:07;25.40;99.90
12771;DHT22;6449;47.666;9.160;2023-09-12T13:28:01;25.40;99.90
12771;DHT22;6449;47.666;9.160;2023-09-12T13:32:56;25.30;99.90
12771;DHT22;6449;47.666;9.160;2023-09-12T13:37:49;25.30;99.90
12771;DHT22;6449;47.666;9.160;2023-09-12T13:42:42;25.40;99.90
12771;DHT22;6449;47.666;9.160;2023-09-12T13:47:37;25.50;99.90
12771;DHT22;6449;47.666;9.160;2023-09-12T13:52:32;25.50;99.90
12771;DHT22;6449;47.666;9.160;2023-09-12T13:57:25;25.40;99.90
12771;DHT22;6449;47.666;9.160;2023-09-12T14:02:19;25.20;99.90
12771;DHT22;6449;47.666;9.160;2023-09-12T14:07:12;25.10;99.90
12771;DHT22;6449;47.666;9.160;2023-09-12T14:12:08;25.10;99.90
12771;DHT22;6449;47.666;9.160;2023-09-12T14:17:17;24.90;99.90
12771;DHT22;6449;47.666;9.160;2023-09-12T14:22:11;24.80;99.90
12771;DHT22;6449;47.666;9.160;2023-09-12T14:27:07;24.60;99.90
12771;DHT22;6449;47.666;9.160;2023-09-12T14:32:17;24.50;99.90
12771;DHT22;6449;47.666;9.160;2023-09-12T14:37:10;24.10;99.90
12771;DHT22;6449;47.666;9.160;2023-09-12T14:42:04;24.00;99.90
12771;DHT22;6449;47.666;9.160;2023-09-12T14:47:01;23.90;99.90
12771;DHT22;6449;47.666;9.160;2023-09-12T14:51:55;23.80;99.90
12771;DHT22;6449;47.666;9.160;2023-09-12T14:56:49;24.00;99.90
12771;DHT22;6449;47.666;9.160;2023-09-12T15:01:43;24.10;99.90
12771;DHT22;6449;47.666;9.160;2023-09-12T15:06:38;24.00;99.90
12771;DHT22;6449;47.666;9.160;2023-09-12T15:11:31;23.80;99.90
12771;DHT22;6449;47.666;9.160;2023-09-12T15:16:25;23.70;99.90
12771;DHT22;6449;47.666;9.160;2023-09-12T15:21:18;23.50;99.90
12771;DHT22;6449;47.666;9.160;2023-09-12T15:26:13;23.40;99.90
12771;DHT22;6449;47.666;9.160;2023-09-12T15:31:08;23.40;99.90
12771;DHT22;6449;47.666;9.160;2023-09-12T15:36:01;23.60;99.90
12771;DHT22;6449;47.666;9.160;2023-09-12T15:40:55;23.70;99.90
12771;DHT22;6449;47.666;9.160;2023-09-12T15:45:52;23.80;99.90
12771;DHT22;6449;47.666;9.160;2023-09-12T15:50:45;23.70;99.90
12771;DHT22;6449;47.666;9.160;2023-09-12T15:55:39;23.50;99.90
12771;DHT22;6449;47.666;9.160;2023-09-12T16:00:32;23.40;99.90
12771;DHT22;6449;47.666;9.160;2023-09-12T16:05:27;23.40;99.90
12771;DHT22;6449;47.666;9.160;2023-09-12T16:10:20;23.40;99.90
12771;DHT22;6449;47.666;9.160;2023-09-12T16:15:14;23.30;99.90
12771;DHT22;6449;47.666;9.160;2023-09-12T16:20:08;23.20;99.90
12771;DHT22;6449;47.666;9.160;2023-09-12T16:25:07;23.10;99.90
12771;DHT22;6449;47.666;9.160;2023-09-12T16:30:01;23.00;99.90
12771;DHT22;6449;47.666;9.160;2023-09-12T16:35:00;22.60;99.90
12771;DHT22;6449;47.666;9.160;2023-09-12T16:39:53;22.30;99.90
12771;DHT22;6449;47.666;9.160;2023-09-12T16:44:48;22.40;99.90
12771;DHT22;6449;47.666;9.160;2023-09-12T16:49:41;22.30;99.90
12771;DHT22;6449;47.666;9.160;2023-09-12T16:54:35;22.20;99.90
12771;DHT22;6449;47.666;9.160;2023-09-12T16:59:29;22.10;99.90
12771;DHT22;6449;47.666;9.160;2023-09-12T17:04:24;21.90;99.90
12771;DHT22;6449;47.666;9.160;2023-09-12T17:09:17;21.80;99.90
12771;DHT22;6449;47.666;9.160;2023-09-12T17:14:10;21.90;99.90
12771;DHT22;6449;47.666;9.160;2023-09-12T17:19:05;22.10;99.90
12771;DHT22;6449;47.666;9.160;2023-09-12T17:24:00;22.20;99.90
12771;DHT22;6449;47.666;9.160;2023-09-12T17:28:53;22.30;99.90
12771;DHT22;6449;47.666;9.160;2023-09-12T17:33:47;22.30;99.90
12771;DHT22;6449;47.666;9.160;2023-09-12T17:38:40;22.20;99.90
12771;DHT22;6449;47.666;9.160;2023-09-12T17:43:35;22.00;99.90
12771;DHT22;6449;47.666;9.160;2023-09-12T17:48:29;21.90;99.90
12771;DHT22;6449;47.666;9.160;2023-09-12T17:53:26;22.00;99.90
12771;DHT22;6449;47.666;9.160;2023-09-12T17:58:19;22.00;99.90
12771;DHT22;6449;47.666;9.160;2023-09-12T18:03:14;22.00;99.90
12771;DHT22;6449;47.666;9.160;2023-09-12T18:08:08;21.90;99.90
12771;DHT22;6449;47.666;9.160;2023-09-12T18:13:01;21.80;99.90
12771;DHT22;6449;47.666;9.160;2023-09-12T18:17:55;21.70;99.90
12771;DHT22;6449;47.666;9.160;2023-09-12T18:22:50;21.60;99.90
12771;DHT22;6449;47.666;9.160;2023-09-12T18:27:46;21.60;99.90
12771;DHT22;6449;47.666;9.160;2023-09-12T18:32:40;21.70;99.90
12771;DHT22;6449;47.666;9.160;2023-09-12T18:37:33;21.80;99.90
12771;DHT22;6449;47.666;9.160;2023-09-12T18:42:28;21.70;99.90
12771;DHT22;6449;47.666;9.160;2023-09-12T18:47:22;21.70;99.90
12771;DHT22;6449;47.666;9.160;2023-09-12T18:52:16;21.70;99.90
12771;DHT22;6449;47.666;9.160;2023-09-12T18:57:10;21.60;99.90
12771;DHT22;6449;47.666;9.160;2023-09-12T19:02:06;21.60;99.90
12771;DHT22;6449;47.666;9.160;2023-09-12T19:07:00;21.60;99.90
12771;DHT22;6449;47.666;9.160;2023-09-12T19:11:53;21.50;99.90
12771;DHT22;6449;47.666;9.160;2023-09-12T19:16:52;21.40;99.90
12771;DHT22;6449;47.666;9.160;2023-09-12T19:21:48;21.30;99.90
12771;DHT22;6449;47.666;9.160;2023-09-12T19:26:42;21.20;99.90
12771;DHT22;6449;47.666;9.160;2023-09-12T19:31:36;21.10;99.90
12771;DHT22;6449;47.666;9.160;2023-09-12T19:36:29;21.20;99.90
12771;DHT22;6449;47.666;9.160;2023-09-12T19:41:25;21.20;99.90
12771;DHT22;6449;47.666;9.160;2023-09-12T19:46:20;21.20;99.90
12771;DHT22;6449;47.666;9.160;2023-09-12T19:51:13;21.20;99.90
12771;DHT22;6449;47.666;9.160;2023-09-12T19:56:07;20.90;99.90
12771;DHT22;6449;47.666;9.160;2023-09-12T20:01:02;20.60;99.90
12771;DHT22;6449;47.666;9.160;2023-09-12T20:05:58;20.50;99.90
12771;DHT22;6449;47.666;9.160;2023-09-12T20:10:52;20.10;99.90
12771;DHT22;6449;47.666;9.160;2023-09-12T20:15:46;20.00;99.90
12771;DHT22;6449;47.666;9.160;2023-09-12T20:20:44;20.20;99.90
12771;DHT22;6449;47.666;9.160;2023-09-12T20:25:38;20.00;99.90
12771;DHT22;6449;47.666;9.160;2023-09-12T20:30:32;19.90;99.90
12771;DHT22;6449;47.666;9.160;2023-09-12T20:35:26;20.10;99.90
12771;DHT22;6449;47.666;9.160;2023-09-12T20:40:21;20.20;99.90
12771;DHT22;6449;47.666;9.160;2023-09-12T20:45:20;20.20;99.90
12771;DHT22;6449;47.666;9.160;2023-09-12T20:50:13;20.20;99.90
12771;DHT22;6449;47.666;9.160;2023-09-12T20:55:11;20.10;99.90
12771;DHT22;6449;47.666;9.160;2023-09-12T21:00:07;20.10;99.90
12771;DHT22;6449;47.666;9.160;2023-09-12T21:05:01;20.10;99.90
12771;DHT22;6449;47.666;9.160;2023-09-12T21:09:55;20.20;99.90
12771;DHT22;6449;47.666;9.160;2023-09-12T21:14:49;20.10;99.90
12771;DHT22;6449;47.666;9.160;2023-09-12T21:19:43;19.90;99.90
12771;DHT22;6449;47.666;9.160;2023-09-12T21:24:37;19.80;99.90
12771;DHT22;6449;47.666;9.160;2023-09-12T21:29:31;19.80;99.90
12771;DHT22;6449;47.666;9.160;2023-09-12T21:34:24;19.70;99.90
12771;DHT22;6449;47.666;9.160;2023-09-12T21:39:19;19.50;99.90
12771;DHT22;6449;47.666;9.160;2023-09-12T21:44:13;19.60;99.90
12771;DHT22;6449;47.666;9.160;2023-09-12T21:49:06;19.70;99.90
12771;DHT22;6449;47.666;9.160;2023-09-12T21:54:00;19.70;99.90
12771;DHT22;6449;47.666;9.160;2023-09-12T21:58:54;19.80;99.90
12771;DHT22;6449;47.666;9.160;2023-09-12T22:03:48;19.90;99.90
12771;DHT22;6449;47.666;9.160;2023-09-12T22:08:42;19.90;99.90
12771;DHT22;6449;47.666;9.160;2023-09-12T22:13:35;19.70;99.90
12771;DHT22;6449;47.666;9.160;2023-09-12T22:18:30;19.60;99.90
12771;DHT22;6449;47.666;9.160;2023-09-12T22:23:24;19.70;99.90
12771;DHT22;6449;47.666;9.160;2023-09-12T22:28:17;19.70;99.90
12771;DHT22;6449;47.666;9.160;2023-09-12T22:33:11;19.90;99.90
12771;DHT22;6449;47.666;9.160;2023-09-12T22:38:06;20.00;99.90
12771;DHT22;6449;47.666;9.160;2023-09-12T22:42:59;20.10;99.90
12771;DHT22;6449;47.666;9.160;2023-09-12T22:47:52;20.10;99.90
12771;DHT22;6449;47.666;9.160;2023-09-12T22:52:46;20.00;99.90
12771;DHT22;6449;47.666;9.160;2023-09-12T22:57:40;19.90;99.90
12771;DHT22;6449;47.666;9.160;2023-09-12T23:02:34;19.80;99.90
12771;DHT22;6449;47.666;9.160;2023-09-12T23:07:28;19.80;99.90
12771;DHT22;6449;47.666;9.160;2023-09-12T23:12:21;19.80;99.90
12771;DHT22;6449;47.666;9.160;2023-09-12T23:17:16;19.80;99.90
12771;DHT22;6449;47.666;9.160;2023-09-12T23:22:09;19.80;99.90
12771;DHT22;6449;47.666;9.160;2023-09-12T23:27:04;19.80;99.90
12771;DHT22;6449;47.666;9.160;2023-09-12T23:31:58;19.80;99.90
12771;DHT22;6449;47.666;9.160;2023-09-12T23:36:53;19.80;99.90
12771;DHT22;6449;47.666;9.160;2023-09-12T23:41:50;19.80;99.90
12771;DHT22;6449;47.666;9.160;2023-09-12T23:46:45;19.80;99.90
12771;DHT22;6449;47.666;9.160;2023-09-12T23:51:38;19.70;99.90
12771;DHT22;6449;47.666;9.160;2023-09-12T23:56:35;19.70;99.90
